sensor_id;sensor_type;location;lat;lon;timestamp;temperature;humidity
8093;DHT22;4089;52.420;13.334;2023-07-08T00:01:16;17.80;99.90
8093;DHT22;4089;52.420;13.334;2023-07-08T00:03:44;17.80;99.90
8093;DHT22;4089;52.420;13.334;2023-07-08T00:06:16;17.80;99.90
8093;DHT22;4089;52.420;13.334;2023-07-08T00:08:43;17.80;99.90
8093;DHT22;4089;52.420;13.334;2023-07-08T00:11:11;17.80;99.90
8093;DHT22;4089;52.420;13.334;2023-07-08T00:13:39;17.80;99.90
8093;DHT22;4089;52.420;13.334;2023-07-08T00:16:12;17.80;99.90
8093;DHT22;4089;52.420;13.334;2023-07-08T00:18:39;17.70;99.90
8093;DHT22;4089;52.420;13.334;2023-07-08T00:21:14;17.70;99.90
8093;DHT22;4089;52.420;13.334;2023-07-08T00:23:47;17.70;99.90
8093;DHT22;4089;52.420;13.334;2023-07-08T00:26:29;17.60;99.90
8093;DHT22;4089;52.420;13.334;2023-07-08T00:28:57;17.50;99.90
8093;DHT22;4089;52.420;13.334;2023-07-08T00:31:24;17.40;99.90
8093;DHT22;4089;52.420;13.334;2023-07-08T00:33:54;17.30;99.90
8093;DHT22;4089;52.420;13.334;2023-07-08T00:36:26;17.20;99.90
8093;DHT22;4089;52.420;13.334;2023-07-08T00:38:53;17.20;99.90
8093;DHT22;4089;52.420;13.334;2023-07-08T00:41:30;17.10;99.90
8093;DHT22;4089;52.420;13.334;2023-07-08T00:43:59;17.10;99.90
8093;DHT22;4089;52.420;13.334;2023-07-08T00:51:37;17.00;99.90
8093;DHT22;4089;52.420;13.334;2023-07-08T00:54:15;17.00;99.90
8093;DHT22;4089;52.420;13.334;2023-07-08T00:56:55;17.00;99.90
8093;DHT22;4089;52.420;13.334;2023-07-08T00:59:28;17.00;99.90
8093;DHT22;4089;52.420;13.334;2023-07-08T01:01:56;17.00;99.90
8093;DHT22;4089;52.420;13.334;2023-07-08T01:07:10;17.00;99.90
8093;DHT22;4089;52.420;13.334;2023-07-08T01:09:40;17.00;99.90
8093;DHT22;4089;52.420;13.334;2023-07-08T01:12:15;17.00;99.90
8093;DHT22;4089;52.420;13.334;2023-07-08T01:14:43;17.00;99.90
8093;DHT22;4089;52.420;13.334;2023-07-08T01:17:11;16.90;99.90
8093;DHT22;4089;52.420;13.334;2023-07-08T01:19:42;16.90;99.90
8093;DHT22;4089;52.420;13.334;2023-07-08T01:22:09;16.90;99.90
8093;DHT22;4089;52.420;13.334;2023-07-08T01:24:40;16.80;99.90
8093;DHT22;4089;52.420;13.334;2023-07-08T01:27:12;16.80;99.90
8093;DHT22;4089;52.420;13.334;2023-07-08T01:29:39;16.80;99.90
8093;DHT22;4089;52.420;13.334;2023-07-08T01:32:11;16.80;99.90
8093;DHT22;4089;52.420;13.334;2023-07-08T01:34:46;16.80;99.90
8093;DHT22;4089;52.420;13.334;2023-07-08T01:37:32;16.70;99.90
8093;DHT22;4089;52.420;13.334;2023-07-08T01:40:24;16.70;99.90
8093;DHT22;4089;52.420;13.334;2023-07-08T01:42:52;16.80;99.90
8093;DHT22;4089;52.420;13.334;2023-07-08T01:45:21;16.80;99.90
8093;DHT22;4089;52.420;13.334;2023-07-08T01:48:02;16.80;99.90
8093;DHT22;4089;52.420;13.334;2023-07-08T01:50:32;16.80;99.90
8093;DHT22;4089;52.420;13.334;2023-07-08T01:53:04;16.70;99.90
8093;DHT22;4089;52.420;13.334;2023-07-08T01:55:33;16.70;99.90
8093;DHT22;4089;52.420;13.334;2023-07-08T01:58:00;16.70;99.90
8093;DHT22;4089;52.420;13.334;2023-07-08T02:00:26;16.60;99.90
8093;DHT22;4089;52.420;13.334;2023-07-08T02:02:53;16.60;99.90
8093;DHT22;4089;52.420;13.334;2023-07-08T02:05:20;16.60;99.90
8093;DHT22;4089;52.420;13.334;2023-07-08T02:07:47;16.70;99.90
8093;DHT22;4089;52.420;13.334;2023-07-08T02:10:14;16.70;99.90
8093;DHT22;4089;52.420;13.334;2023-07-08T02:12:41;16.80;99.90
8093;DHT22;4089;52.420;13.334;2023-07-08T02:15:09;16.80;99.90
8093;DHT22;4089;52.420;13.334;2023-07-08T02:17:36;16.70;99.90
8093;DHT22;4089;52.420;13.334;2023-07-08T02:20:03;16.80;99.90
8093;DHT22;4089;52.420;13.334;2023-07-08T02:22:31;16.70;99.90
8093;DHT22;4089;52.420;13.334;2023-07-08T02:24:57;16.70;99.90
8093;DHT22;4089;52.420;13.334;2023-07-08T02:27:24;16.70;99.90
8093;DHT22;4089;52.420;13.334;2023-07-08T02:29:51;16.70;99.90
8093;DHT22;4089;52.420;13.334;2023-07-08T02:32:18;16.70;99.90
8093;DHT22;4089;52.420;13.334;2023-07-08T02:34:45;16.70;99.90
8093;DHT22;4089;52.420;13.334;2023-07-08T02:37:12;16.70;99.90
8093;DHT22;4089;52.420;13.334;2023-07-08T02:39:39;16.60;99.90
8093;DHT22;4089;52.420;13.334;2023-07-08T02:42:06;16.60;99.90
8093;DHT22;4089;52.420;13.334;2023-07-08T02:44:32;16.50;99.90
8093;DHT22;4089;52.420;13.334;2023-07-08T02:46:59;16.60;99.90
8093;DHT22;4089;52.420;13.334;2023-07-08T02:49:27;16.50;99.90
8093;DHT22;4089;52.420;13.334;2023-07-08T02:51:54;16.50;99.90
8093;DHT22;4089;52.420;13.334;2023-07-08T02:54:20;16.50;99.90
8093;DHT22;4089;52.420;13.334;2023-07-08T02:56:47;16.40;99.90
8093;DHT22;4089;52.420;13.334;2023-07-08T02:59:14;16.40;99.90
8093;DHT22;4089;52.420;13.334;2023-07-08T03:01:41;16.40;99.90
8093;DHT22;4089;52.420;13.334;2023-07-08T03:04:09;16.30;99.90
8093;DHT22;4089;52.420;13.334;2023-07-08T03:06:43;16.30;99.90
8093;DHT22;4089;52.420;13.334;2023-07-08T03:09:12;16.20;99.90
8093;DHT22;4089;52.420;13.334;2023-07-08T03:11:39;16.10;99.90
8093;DHT22;4089;52.420;13.334;2023-07-08T03:14:06;16.10;99.90
8093;DHT22;4089;52.420;13.334;2023-07-08T03:16:33;16.00;99.90
8093;DHT22;4089;52.420;13.334;2023-07-08T03:19:00;16.00;99.90
8093;DHT22;4089;52.420;13.334;2023-07-08T03:21:28;16.00;99.90
8093;DHT22;4089;52.420;13.334;2023-07-08T03:23:54;16.10;99.90
8093;DHT22;4089;52.420;13.334;2023-07-08T03:26:24;16.10;99.90
8093;DHT22;4089;52.420;13.334;2023-07-08T03:28:51;16.10;99.90
8093;DHT22;4089;52.420;13.334;2023-07-08T03:31:18;16.10;99.90
8093;DHT22;4089;52.420;13.334;2023-07-08T03:33:45;16.10;99.90
8093;DHT22;4089;52.420;13.334;2023-07-08T03:36:16;16.20;99.90
8093;DHT22;4089;52.420;13.334;2023-07-08T03:38:54;16.20;99.90
8093;DHT22;4089;52.420;13.334;2023-07-08T03:41:23;16.20;99.90
8093;DHT22;4089;52.420;13.334;2023-07-08T03:43:50;16.30;99.90
8093;DHT22;4089;52.420;13.334;2023-07-08T03:46:20;16.30;99.90
8093;DHT22;4089;52.420;13.334;2023-07-08T03:48:48;16.40;99.90
8093;DHT22;4089;52.420;13.334;2023-07-08T03:51:35;16.50;99.90
8093;DHT22;4089;52.420;13.334;2023-07-08T03:54:04;16.50;99.90
8093;DHT22;4089;52.420;13.334;2023-07-08T03:56:31;16.60;99.90
8093;DHT22;4089;52.420;13.334;2023-07-08T03:58:58;16.60;99.90
8093;DHT22;4089;52.420;13.334;2023-07-08T04:01:26;16.70;99.90
8093;DHT22;4089;52.420;13.334;2023-07-08T04:03:55;16.80;99.90
8093;DHT22;4089;52.420;13.334;2023-07-08T04:06:22;16.80;99.90
8093;DHT22;4089;52.420;13.334;2023-07-08T04:08:50;16.90;99.90
8093;DHT22;4089;52.420;13.334;2023-07-08T04:11:20;17.00;99.90
8093;DHT22;4089;52.420;13.334;2023-07-08T04:13:47;17.20;99.90
8093;DHT22;4089;52.420;13.334;2023-07-08T04:16:28;17.20;99.90
8093;DHT22;4089;52.420;13.334;2023-07-08T04:18:56;17.20;99.90
8093;DHT22;4089;52.420;13.334;2023-07-08T04:21:24;17.20;99.90
8093;DHT22;4089;52.420;13.334;2023-07-08T04:23:54;17.30;99.90
8093;DHT22;4089;52.420;13.334;2023-07-08T04:26:21;17.40;99.90
8093;DHT22;4089;52.420;13.334;2023-07-08T04:28:48;17.50;99.90
8093;DHT22;4089;52.420;13.334;2023-07-08T04:31:15;17.60;99.90
8093;DHT22;4089;52.420;13.334;2023-07-08T04:33:42;17.70;99.90
8093;DHT22;4089;52.420;13.334;2023-07-08T04:36:12;17.90;99.90
8093;DHT22;4089;52.420;13.334;2023-07-08T04:38:40;17.90;99.90
8093;DHT22;4089;52.420;13.334;2023-07-08T04:41:08;18.10;99.90
8093;DHT22;4089;52.420;13.334;2023-07-08T04:43:35;18.20;99.90
8093;DHT22;4089;52.420;13.334;2023-07-08T04:46:02;18.30;99.90
8093;DHT22;4089;52.420;13.334;2023-07-08T04:48:29;18.40;99.90
8093;DHT22;4089;52.420;13.334;2023-07-08T04:50:56;18.50;99.90
8093;DHT22;4089;52.420;13.334;2023-07-08T04:53:24;18.60;99.90
8093;DHT22;4089;52.420;13.334;2023-07-08T04:55:53;18.70;99.90
8093;DHT22;4089;52.420;13.334;2023-07-08T04:58:22;18.90;99.90
8093;DHT22;4089;52.420;13.334;2023-07-08T05:00:49;19.00;99.90
8093;DHT22;4089;52.420;13.334;2023-07-08T05:03:16;19.20;99.90
8093;DHT22;4089;52.420;13.334;2023-07-08T05:05:43;19.40;99.90
8093;DHT22;4089;52.420;13.334;2023-07-08T05:08:12;19.50;99.90
8093;DHT22;4089;52.420;13.334;2023-07-08T05:10:39;19.60;99.90
8093;DHT22;4089;52.420;13.334;2023-07-08T05:13:06;19.80;99.90
8093;DHT22;4089;52.420;13.334;2023-07-08T05:15:33;19.90;99.90
8093;DHT22;4089;52.420;13.334;2023-07-08T05:18:00;20.10;99.90
8093;DHT22;4089;52.420;13.334;2023-07-08T05:20:26;20.20;99.90
8093;DHT22;4089;52.420;13.334;2023-07-08T05:22:53;20.30;99.90
8093;DHT22;4089;52.420;13.334;2023-07-08T05:25:20;20.40;99.90
8093;DHT22;4089;52.420;13.334;2023-07-08T05:27:47;20.60;99.90
8093;DHT22;4089;52.420;13.334;2023-07-08T05:30:18;20.80;99.90
8093;DHT22;4089;52.420;13.334;2023-07-08T05:32:45;20.80;99.90
8093;DHT22;4089;52.420;13.334;2023-07-08T05:35:12;21.00;99.90
8093;DHT22;4089;52.420;13.334;2023-07-08T05:37:39;21.10;99.90
8093;DHT22;4089;52.420;13.334;2023-07-08T05:40:10;21.30;99.90
8093;DHT22;4089;52.420;13.334;2023-07-08T05:42:37;21.40;99.90
8093;DHT22;4089;52.420;13.334;2023-07-08T05:45:04;21.50;99.90
8093;DHT22;4089;52.420;13.334;2023-07-08T05:47:33;21.60;99.90
8093;DHT22;4089;52.420;13.334;2023-07-08T05:50:00;21.80;99.90
8093;DHT22;4089;52.420;13.334;2023-07-08T05:52:27;21.80;99.90
8093;DHT22;4089;52.420;13.334;2023-07-08T05:54:54;22.00;99.90
8093;DHT22;4089;52.420;13.334;2023-07-08T05:57:22;22.10;99.90
8093;DHT22;4089;52.420;13.334;2023-07-08T05:59:50;22.20;99.90
8093;DHT22;4089;52.420;13.334;2023-07-08T06:02:17;22.30;99.90
8093;DHT22;4089;52.420;13.334;2023-07-08T06:04:46;22.50;99.90
8093;DHT22;4089;52.420;13.334;2023-07-08T06:07:13;22.70;99.90
8093;DHT22;4089;52.420;13.334;2023-07-08T06:09:40;22.80;99.90
8093;DHT22;4089;52.420;13.334;2023-07-08T06:12:07;22.90;99.90
8093;DHT22;4089;52.420;13.334;2023-07-08T06:14:34;23.00;99.90
8093;DHT22;4089;52.420;13.334;2023-07-08T06:17:01;23.10;99.90
8093;DHT22;4089;52.420;13.334;2023-07-08T06:19:28;23.10;99.90
8093;DHT22;4089;52.420;13.334;2023-07-08T06:21:55;23.20;99.90
8093;DHT22;4089;52.420;13.334;2023-07-08T06:24:41;23.30;99.90
8093;DHT22;4089;52.420;13.334;2023-07-08T06:27:09;23.40;99.90
8093;DHT22;4089;52.420;13.334;2023-07-08T06:29:36;23.40;99.90
8093;DHT22;4089;52.420;13.334;2023-07-08T06:32:03;23.60;99.90
8093;DHT22;4089;52.420;13.334;2023-07-08T06:34:30;23.70;99.90
8093;DHT22;4089;52.420;13.334;2023-07-08T06:36:57;23.90;99.90
8093;DHT22;4089;52.420;13.334;2023-07-08T06:39:23;24.00;99.90
8093;DHT22;4089;52.420;13.334;2023-07-08T06:41:50;23.90;99.90
8093;DHT22;4089;52.420;13.334;2023-07-08T06:44:17;24.10;99.90
8093;DHT22;4089;52.420;13.334;2023-07-08T06:46:44;24.20;99.90
8093;DHT22;4089;52.420;13.334;2023-07-08T06:49:11;24.20;99.90
8093;DHT22;4089;52.420;13.334;2023-07-08T06:51:39;24.30;99.90
8093;DHT22;4089;52.420;13.334;2023-07-08T06:54:06;24.50;99.90
8093;DHT22;4089;52.420;13.334;2023-07-08T06:56:41;24.60;99.90
8093;DHT22;4089;52.420;13.334;2023-07-08T06:59:08;24.70;99.50
8093;DHT22;4089;52.420;13.334;2023-07-08T07:01:35;24.80;98.80
8093;DHT22;4089;52.420;13.334;2023-07-08T07:04:03;24.90;97.80
8093;DHT22;4089;52.420;13.334;2023-07-08T07:06:30;25.20;98.40
8093;DHT22;4089;52.420;13.334;2023-07-08T07:08:57;25.90;97.10
8093;DHT22;4089;52.420;13.334;2023-07-08T07:11:24;27.10;96.20
8093;DHT22;4089;52.420;13.334;2023-07-08T07:13:51;28.50;92.30
8093;DHT22;4089;52.420;13.334;2023-07-08T07:16:18;30.00;87.60
8093;DHT22;4089;52.420;13.334;2023-07-08T07:18:45;32.40;74.10
8093;DHT22;4089;52.420;13.334;2023-07-08T07:21:12;32.20;64.10
8093;DHT22;4089;52.420;13.334;2023-07-08T07:23:39;32.10;59.20
8093;DHT22;4089;52.420;13.334;2023-07-08T07:26:06;32.40;57.30
8093;DHT22;4089;52.420;13.334;2023-07-08T07:28:34;32.90;54.70
8093;DHT22;4089;52.420;13.334;2023-07-08T07:31:01;33.50;52.10
8093;DHT22;4089;52.420;13.334;2023-07-08T07:33:28;33.70;49.70
8093;DHT22;4089;52.420;13.334;2023-07-08T07:35:55;33.40;47.70
8093;DHT22;4089;52.420;13.334;2023-07-08T07:38:22;32.80;49.20
8093;DHT22;4089;52.420;13.334;2023-07-08T07:40:55;32.40;47.90
8093;DHT22;4089;52.420;13.334;2023-07-08T07:43:22;31.30;50.90
8093;DHT22;4089;52.420;13.334;2023-07-08T07:45:51;30.30;50.70
8093;DHT22;4089;52.420;13.334;2023-07-08T07:48:19;29.90;53.70
8093;DHT22;4089;52.420;13.334;2023-07-08T07:50:48;29.40;54.60
8093;DHT22;4089;52.420;13.334;2023-07-08T07:53:15;29.00;55.80
8093;DHT22;4089;52.420;13.334;2023-07-08T07:55:42;29.00;58.60
8093;DHT22;4089;52.420;13.334;2023-07-08T07:58:09;28.70;54.40
8093;DHT22;4089;52.420;13.334;2023-07-08T08:00:39;28.50;58.10
8093;DHT22;4089;52.420;13.334;2023-07-08T08:03:06;28.10;55.20
8093;DHT22;4089;52.420;13.334;2023-07-08T08:05:33;28.00;55.90
8093;DHT22;4089;52.420;13.334;2023-07-08T08:07:59;28.00;56.70
8093;DHT22;4089;52.420;13.334;2023-07-08T08:10:26;28.00;55.20
8093;DHT22;4089;52.420;13.334;2023-07-08T08:12:53;27.90;58.90
8093;DHT22;4089;52.420;13.334;2023-07-08T08:15:21;28.10;58.30
8093;DHT22;4089;52.420;13.334;2023-07-08T08:17:49;28.10;58.00
8093;DHT22;4089;52.420;13.334;2023-07-08T08:20:20;28.00;58.80
8093;DHT22;4089;52.420;13.334;2023-07-08T08:22:47;27.90;60.60
8093;DHT22;4089;52.420;13.334;2023-07-08T08:25:15;27.90;59.50
8093;DHT22;4089;52.420;13.334;2023-07-08T08:27:42;28.00;59.60
8093;DHT22;4089;52.420;13.334;2023-07-08T08:30:11;27.90;56.70
8093;DHT22;4089;52.420;13.334;2023-07-08T08:32:38;28.00;56.90
8093;DHT22;4089;52.420;13.334;2023-07-08T08:35:05;28.10;60.30
8093;DHT22;4089;52.420;13.334;2023-07-08T08:37:32;28.10;57.30
8093;DHT22;4089;52.420;13.334;2023-07-08T08:39:59;28.20;56.30
8093;DHT22;4089;52.420;13.334;2023-07-08T08:42:32;28.30;53.50
8093;DHT22;4089;52.420;13.334;2023-07-08T08:45:02;28.30;52.40
8093;DHT22;4089;52.420;13.334;2023-07-08T08:47:44;28.40;51.40
8093;DHT22;4089;52.420;13.334;2023-07-08T08:50:26;28.40;52.90
8093;DHT22;4089;52.420;13.334;2023-07-08T08:52:55;28.40;49.90
8093;DHT22;4089;52.420;13.334;2023-07-08T08:55:23;28.40;46.80
8093;DHT22;4089;52.420;13.334;2023-07-08T09:01:06;28.50;51.50
8093;DHT22;4089;52.420;13.334;2023-07-08T09:03:51;28.60;53.60
8093;DHT22;4089;52.420;13.334;2023-07-08T09:06:21;28.70;49.40
8093;DHT22;4089;52.420;13.334;2023-07-08T09:08:50;28.90;47.70
8093;DHT22;4089;52.420;13.334;2023-07-08T09:11:40;29.00;46.90
8093;DHT22;4089;52.420;13.334;2023-07-08T09:14:27;28.90;48.20
8093;DHT22;4089;52.420;13.334;2023-07-08T09:19:43;28.90;44.00
8093;DHT22;4089;52.420;13.334;2023-07-08T09:22:20;28.90;40.80
8093;DHT22;4089;52.420;13.334;2023-07-08T09:24:51;29.00;43.20
8093;DHT22;4089;52.420;13.334;2023-07-08T09:27:21;29.10;42.00
8093;DHT22;4089;52.420;13.334;2023-07-08T09:29:47;29.10;42.20
8093;DHT22;4089;52.420;13.334;2023-07-08T09:32:21;29.20;44.60
8093;DHT22;4089;52.420;13.334;2023-07-08T09:35:02;29.00;35.80
8093;DHT22;4089;52.420;13.334;2023-07-08T09:37:32;29.00;38.80
8093;DHT22;4089;52.420;13.334;2023-07-08T09:42:46;29.10;38.90
8093;DHT22;4089;52.420;13.334;2023-07-08T09:45:18;29.40;38.90
8093;DHT22;4089;52.420;13.334;2023-07-08T09:47:46;29.50;37.00
8093;DHT22;4089;52.420;13.334;2023-07-08T09:50:25;29.50;36.00
8093;DHT22;4089;52.420;13.334;2023-07-08T09:52:57;29.50;35.30
8093;DHT22;4089;52.420;13.334;2023-07-08T09:55:26;29.60;40.30
8093;DHT22;4089;52.420;13.334;2023-07-08T09:57:57;29.60;40.40
8093;DHT22;4089;52.420;13.334;2023-07-08T10:00:34;29.80;40.40
8093;DHT22;4089;52.420;13.334;2023-07-08T10:03:15;29.90;39.30
8093;DHT22;4089;52.420;13.334;2023-07-08T10:05:46;29.80;36.40
8093;DHT22;4089;52.420;13.334;2023-07-08T10:08:19;29.70;38.70
8093;DHT22;4089;52.420;13.334;2023-07-08T10:10:50;29.90;37.80
8093;DHT22;4089;52.420;13.334;2023-07-08T10:13:42;29.90;35.50
8093;DHT22;4089;52.420;13.334;2023-07-08T10:16:17;29.90;35.20
8093;DHT22;4089;52.420;13.334;2023-07-08T10:18:47;29.90;33.60
8093;DHT22;4089;52.420;13.334;2023-07-08T10:21:36;29.80;34.00
8093;DHT22;4089;52.420;13.334;2023-07-08T10:26:47;29.70;37.00
8093;DHT22;4089;52.420;13.334;2023-07-08T10:29:29;29.80;34.00
8093;DHT22;4089;52.420;13.334;2023-07-08T10:43:03;30.20;34.20
8093;DHT22;4089;52.420;13.334;2023-07-08T10:50:48;30.30;34.90
8093;DHT22;4089;52.420;13.334;2023-07-08T10:56:34;30.40;33.60
8093;DHT22;4089;52.420;13.334;2023-07-08T11:08:10;30.40;31.40
8093;DHT22;4089;52.420;13.334;2023-07-08T11:11:03;30.30;30.80
8093;DHT22;4089;52.420;13.334;2023-07-08T11:13:55;30.30;29.70
8093;DHT22;4089;52.420;13.334;2023-07-08T11:17:35;30.40;32.00
8093;DHT22;4089;52.420;13.334;2023-07-08T11:19:37;30.30;31.90
8093;DHT22;4089;52.420;13.334;2023-07-08T11:22:10;30.30;31.60
8093;DHT22;4089;52.420;13.334;2023-07-08T11:24:47;30.30;30.20
8093;DHT22;4089;52.420;13.334;2023-07-08T11:27:21;30.50;30.60
8093;DHT22;4089;52.420;13.334;2023-07-08T11:29:55;30.60;29.20
8093;DHT22;4089;52.420;13.334;2023-07-08T11:32:26;30.50;30.40
8093;DHT22;4089;52.420;13.334;2023-07-08T11:34:55;30.60;30.90
8093;DHT22;4089;52.420;13.334;2023-07-08T11:37:22;30.80;31.20
8093;DHT22;4089;52.420;13.334;2023-07-08T11:39:58;30.90;30.20
8093;DHT22;4089;52.420;13.334;2023-07-08T11:42:44;30.70;29.20
8093;DHT22;4089;52.420;13.334;2023-07-08T11:45:27;30.60;29.00
8093;DHT22;4089;52.420;13.334;2023-07-08T11:50:42;30.70;29.60
8093;DHT22;4089;52.420;13.334;2023-07-08T11:53:11;30.80;29.70
8093;DHT22;4089;52.420;13.334;2023-07-08T11:55:53;30.70;28.20
8093;DHT22;4089;52.420;13.334;2023-07-08T11:58:30;30.70;29.40
8093;DHT22;4089;52.420;13.334;2023-07-08T12:03:36;30.80;29.20
8093;DHT22;4089;52.420;13.334;2023-07-08T12:08:54;30.80;27.70
8093;DHT22;4089;52.420;13.334;2023-07-08T12:11:35;30.70;27.70
8093;DHT22;4089;52.420;13.334;2023-07-08T12:14:06;30.80;28.60
8093;DHT22;4089;52.420;13.334;2023-07-08T12:16:35;31.00;29.40
8093;DHT22;4089;52.420;13.334;2023-07-08T12:19:04;31.10;28.10
8093;DHT22;4089;52.420;13.334;2023-07-08T12:21:35;31.10;28.00
8093;DHT22;4089;52.420;13.334;2023-07-08T12:24:06;31.20;27.10
8093;DHT22;4089;52.420;13.334;2023-07-08T12:26:34;31.20;28.70
8093;DHT22;4089;52.420;13.334;2023-07-08T12:29:01;31.20;27.80
8093;DHT22;4089;52.420;13.334;2023-07-08T12:31:29;31.30;27.90
8093;DHT22;4089;52.420;13.334;2023-07-08T12:33:58;31.30;28.00
8093;DHT22;4089;52.420;13.334;2023-07-08T12:36:28;31.30;27.10
8093;DHT22;4089;52.420;13.334;2023-07-08T12:38:56;31.30;25.90
8093;DHT22;4089;52.420;13.334;2023-07-08T12:41:35;31.20;28.60
8093;DHT22;4089;52.420;13.334;2023-07-08T12:44:30;31.30;28.30
8093;DHT22;4089;52.420;13.334;2023-07-08T12:47:01;31.30;26.90
8093;DHT22;4089;52.420;13.334;2023-07-08T12:49:29;31.30;26.60
8093;DHT22;4089;52.420;13.334;2023-07-08T12:51:56;31.40;28.50
8093;DHT22;4089;52.420;13.334;2023-07-08T12:54:23;31.50;27.30
8093;DHT22;4089;52.420;13.334;2023-07-08T12:56:51;31.50;27.10
8093;DHT22;4089;52.420;13.334;2023-07-08T12:59:19;31.60;27.60
8093;DHT22;4089;52.420;13.334;2023-07-08T13:01:48;31.60;26.70
8093;DHT22;4089;52.420;13.334;2023-07-08T13:04:17;31.50;27.20
8093;DHT22;4089;52.420;13.334;2023-07-08T13:06:46;31.50;26.50
8093;DHT22;4089;52.420;13.334;2023-07-08T13:12:06;31.60;25.90
8093;DHT22;4089;52.420;13.334;2023-07-08T13:14:37;31.60;26.10
8093;DHT22;4089;52.420;13.334;2023-07-08T13:17:14;31.60;27.10
8093;DHT22;4089;52.420;13.334;2023-07-08T13:19:43;31.50;25.60
8093;DHT22;4089;52.420;13.334;2023-07-08T13:22:17;31.40;25.90
8093;DHT22;4089;52.420;13.334;2023-07-08T13:24:44;31.40;25.90
8093;DHT22;4089;52.420;13.334;2023-07-08T13:27:21;31.50;26.60
8093;DHT22;4089;52.420;13.334;2023-07-08T13:29:51;31.80;27.00
8093;DHT22;4089;52.420;13.334;2023-07-08T13:32:19;31.80;25.30
8093;DHT22;4089;52.420;13.334;2023-07-08T13:34:49;31.80;24.90
8093;DHT22;4089;52.420;13.334;2023-07-08T13:37:18;32.00;24.90
8093;DHT22;4089;52.420;13.334;2023-07-08T13:39:51;32.50;24.70
8093;DHT22;4089;52.420;13.334;2023-07-08T13:42:19;33.30;25.50
8093;DHT22;4089;52.420;13.334;2023-07-08T13:44:46;33.80;24.80
8093;DHT22;4089;52.420;13.334;2023-07-08T13:47:23;34.10;24.70
8093;DHT22;4089;52.420;13.334;2023-07-08T13:50:20;34.50;24.60
8093;DHT22;4089;52.420;13.334;2023-07-08T13:52:54;34.90;23.00
8093;DHT22;4089;52.420;13.334;2023-07-08T13:55:22;35.40;22.70
8093;DHT22;4089;52.420;13.334;2023-07-08T13:57:59;35.30;22.90
8093;DHT22;4089;52.420;13.334;2023-07-08T14:00:30;35.60;22.20
8093;DHT22;4089;52.420;13.334;2023-07-08T14:02:58;35.30;21.70
8093;DHT22;4089;52.420;13.334;2023-07-08T14:05:25;35.40;20.60
8093;DHT22;4089;52.420;13.334;2023-07-08T14:07:52;35.40;20.00
8093;DHT22;4089;52.420;13.334;2023-07-08T14:10:18;35.50;21.20
8093;DHT22;4089;52.420;13.334;2023-07-08T14:12:45;35.30;19.70
8093;DHT22;4089;52.420;13.334;2023-07-08T14:15:12;35.90;20.10
8093;DHT22;4089;52.420;13.334;2023-07-08T14:17:39;36.70;20.20
8093;DHT22;4089;52.420;13.334;2023-07-08T14:20:15;36.60;19.20
8093;DHT22;4089;52.420;13.334;2023-07-08T14:22:42;36.80;19.20
8093;DHT22;4089;52.420;13.334;2023-07-08T14:25:10;36.50;19.20
8093;DHT22;4089;52.420;13.334;2023-07-08T14:27:38;36.30;19.20
8093;DHT22;4089;52.420;13.334;2023-07-08T14:30:05;36.00;20.50
8093;DHT22;4089;52.420;13.334;2023-07-08T14:32:35;35.10;18.50
8093;DHT22;4089;52.420;13.334;2023-07-08T14:37:44;34.40;18.50
8093;DHT22;4089;52.420;13.334;2023-07-08T14:42:43;33.70;19.90
8093;DHT22;4089;52.420;13.334;2023-07-08T14:45:10;33.80;20.40
8093;DHT22;4089;52.420;13.334;2023-07-08T14:47:37;33.50;20.20
8093;DHT22;4089;52.420;13.334;2023-07-08T14:50:13;33.30;19.70
8093;DHT22;4089;52.420;13.334;2023-07-08T14:52:40;33.10;19.00
8093;DHT22;4089;52.420;13.334;2023-07-08T14:55:09;32.80;18.30
8093;DHT22;4089;52.420;13.334;2023-07-08T14:57:43;32.70;20.80
8093;DHT22;4089;52.420;13.334;2023-07-08T15:00:17;32.70;19.00
8093;DHT22;4089;52.420;13.334;2023-07-08T15:02:46;32.60;21.20
8093;DHT22;4089;52.420;13.334;2023-07-08T15:05:15;32.10;19.40
8093;DHT22;4089;52.420;13.334;2023-07-08T15:07:42;31.90;19.00
8093;DHT22;4089;52.420;13.334;2023-07-08T15:10:10;31.90;18.80
8093;DHT22;4089;52.420;13.334;2023-07-08T15:12:37;32.10;19.60
8093;DHT22;4089;52.420;13.334;2023-07-08T15:15:04;32.00;19.40
8093;DHT22;4089;52.420;13.334;2023-07-08T15:17:31;32.00;19.90
8093;DHT22;4089;52.420;13.334;2023-07-08T15:19:58;32.20;19.40
8093;DHT22;4089;52.420;13.334;2023-07-08T15:22:25;32.40;19.50
8093;DHT22;4089;52.420;13.334;2023-07-08T15:24:52;32.30;20.20
8093;DHT22;4089;52.420;13.334;2023-07-08T15:27:21;32.10;19.50
8093;DHT22;4089;52.420;13.334;2023-07-08T15:29:49;32.00;20.40
8093;DHT22;4089;52.420;13.334;2023-07-08T15:32:16;31.80;19.50
8093;DHT22;4089;52.420;13.334;2023-07-08T15:35:11;31.60;18.80
8093;DHT22;4089;52.420;13.334;2023-07-08T15:37:38;31.50;19.30
8093;DHT22;4089;52.420;13.334;2023-07-08T15:40:06;31.50;18.40
8093;DHT22;4089;52.420;13.334;2023-07-08T15:42:35;31.60;19.50
8093;DHT22;4089;52.420;13.334;2023-07-08T15:45:13;31.80;19.00
8093;DHT22;4089;52.420;13.334;2023-07-08T15:47:41;32.10;19.00
8093;DHT22;4089;52.420;13.334;2023-07-08T15:50:16;32.30;19.40
8093;DHT22;4089;52.420;13.334;2023-07-08T15:52:44;32.10;19.90
8093;DHT22;4089;52.420;13.334;2023-07-08T15:55:12;31.90;19.80
8093;DHT22;4089;52.420;13.334;2023-07-08T15:57:46;31.90;20.20
8093;DHT22;4089;52.420;13.334;2023-07-08T16:00:20;31.70;19.60
8093;DHT22;4089;52.420;13.334;2023-07-08T16:02:51;31.60;19.60
8093;DHT22;4089;52.420;13.334;2023-07-08T16:05:20;31.60;18.80
8093;DHT22;4089;52.420;13.334;2023-07-08T16:07:49;31.40;18.40
8093;DHT22;4089;52.420;13.334;2023-07-08T16:10:17;31.30;17.90
8093;DHT22;4089;52.420;13.334;2023-07-08T16:12:45;31.20;19.70
8093;DHT22;4089;52.420;13.334;2023-07-08T16:15:18;31.30;20.50
8093;DHT22;4089;52.420;13.334;2023-07-08T16:17:45;31.30;18.80
8093;DHT22;4089;52.420;13.334;2023-07-08T16:20:21;31.30;18.90
8093;DHT22;4089;52.420;13.334;2023-07-08T16:22:48;31.30;20.60
8093;DHT22;4089;52.420;13.334;2023-07-08T16:25:17;31.20;20.30
8093;DHT22;4089;52.420;13.334;2023-07-08T16:27:47;31.20;20.20
8093;DHT22;4089;52.420;13.334;2023-07-08T16:30:18;31.20;21.20
8093;DHT22;4089;52.420;13.334;2023-07-08T16:32:45;31.20;20.50
8093;DHT22;4089;52.420;13.334;2023-07-08T16:35:18;31.10;19.80
8093;DHT22;4089;52.420;13.334;2023-07-08T16:37:47;31.10;20.20
8093;DHT22;4089;52.420;13.334;2023-07-08T16:40:19;31.20;20.10
8093;DHT22;4089;52.420;13.334;2023-07-08T16:42:48;31.30;20.40
8093;DHT22;4089;52.420;13.334;2023-07-08T16:45:18;31.30;20.00
8093;DHT22;4089;52.420;13.334;2023-07-08T16:47:46;31.20;19.70
8093;DHT22;4089;52.420;13.334;2023-07-08T16:50:14;31.20;20.10
8093;DHT22;4089;52.420;13.334;2023-07-08T16:52:42;31.20;21.30
8093;DHT22;4089;52.420;13.334;2023-07-08T16:55:13;31.20;19.70
8093;DHT22;4089;52.420;13.334;2023-07-08T16:57:41;31.10;19.90
8093;DHT22;4089;52.420;13.334;2023-07-08T17:00:13;31.10;19.60
8093;DHT22;4089;52.420;13.334;2023-07-08T17:02:40;31.10;20.20
8093;DHT22;4089;52.420;13.334;2023-07-08T17:07:44;30.90;19.20
8093;DHT22;4089;52.420;13.334;2023-07-08T17:10:11;30.80;20.20